sensor_id;sensor_type;location;lat;lon;timestamp;temperature;humidity
21648;DHT22;10985;54.182;7.890;2023-02-28T00:00:13;6.30;99.90
21648;DHT22;10985;54.182;7.890;2023-02-28T00:02:40;6.30;99.90
21648;DHT22;10985;54.182;7.890;2023-02-28T00:05:08;6.30;99.90
21648;DHT22;10985;54.182;7.890;2023-02-28T00:07:34;6.30;99.90
21648;DHT22;10985;54.182;7.890;2023-02-28T00:10:00;6.30;99.90
21648;DHT22;10985;54.182;7.890;2023-02-28T00:12:26;6.30;99.90
21648;DHT22;10985;54.182;7.890;2023-02-28T00:14:51;6.30;99.90
21648;DHT22;10985;54.182;7.890;2023-02-28T00:17:17;6.30;99.90
21648;DHT22;10985;54.182;7.890;2023-02-28T00:19:47;6.20;99.90
21648;DHT22;10985;54.182;7.890;2023-02-28T00:22:13;6.20;99.90
21648;DHT22;10985;54.182;7.890;2023-02-28T00:24:39;6.30;99.90
21648;DHT22;10985;54.182;7.890;2023-02-28T00:27:04;6.20;99.90
21648;DHT22;10985;54.182;7.890;2023-02-28T00:29:30;6.20;99.90
21648;DHT22;10985;54.182;7.890;2023-02-28T00:31:55;6.20;99.90
21648;DHT22;10985;54.182;7.890;2023-02-28T00:34:21;6.20;99.90
21648;DHT22;10985;54.182;7.890;2023-02-28T00:36:46;6.20;99.90
21648;DHT22;10985;54.182;7.890;2023-02-28T00:39:14;6.20;99.90
21648;DHT22;10985;54.182;7.890;2023-02-28T00:41:39;6.10;99.90
21648;DHT22;10985;54.182;7.890;2023-02-28T00:44:05;6.10;99.90
21648;DHT22;10985;54.182;7.890;2023-02-28T00:46:30;6.20;99.90
21648;DHT22;10985;54.182;7.890;2023-02-28T00:48:56;6.20;99.90
21648;DHT22;10985;54.182;7.890;2023-02-28T00:51:21;6.20;99.90
21648;DHT22;10985;54.182;7.890;2023-02-28T00:53:47;6.10;99.90
21648;DHT22;10985;54.182;7.890;2023-02-28T00:56:12;6.20;99.90
21648;DHT22;10985;54.182;7.890;2023-02-28T00:58:39;6.20;99.90
21648;DHT22;10985;54.182;7.890;2023-02-28T01:01:04;6.20;99.90
21648;DHT22;10985;54.182;7.890;2023-02-28T01:03:30;6.20;99.90
21648;DHT22;10985;54.182;7.890;2023-02-28T01:05:55;6.10;99.90
21648;DHT22;10985;54.182;7.890;2023-02-28T01:08:21;6.20;99.90
21648;DHT22;10985;54.182;7.890;2023-02-28T01:10:47;6.10;99.90
21648;DHT22;10985;54.182;7.890;2023-02-28T01:13:14;6.10;99.90
21648;DHT22;10985;54.182;7.890;2023-02-28T01:15:48;6.20;99.90
21648;DHT22;10985;54.182;7.890;2023-02-28T01:18:14;6.20;99.90
21648;DHT22;10985;54.182;7.890;2023-02-28T01:20:40;6.20;99.90
21648;DHT22;10985;54.182;7.890;2023-02-28T01:23:05;6.20;99.90
21648;DHT22;10985;54.182;7.890;2023-02-28T01:25:34;6.20;99.90
21648;DHT22;10985;54.182;7.890;2023-02-28T01:27:59;6.20;99.90
21648;DHT22;10985;54.182;7.890;2023-02-28T01:30:25;6.20;99.90
21648;DHT22;10985;54.182;7.890;2023-02-28T01:32:50;6.20;99.90
21648;DHT22;10985;54.182;7.890;2023-02-28T01:35:18;6.20;99.90
21648;DHT22;10985;54.182;7.890;2023-02-28T01:37:44;6.20;99.90
21648;DHT22;10985;54.182;7.890;2023-02-28T01:40:10;6.20;99.90
21648;DHT22;10985;54.182;7.890;2023-02-28T01:42:36;6.20;99.90
21648;DHT22;10985;54.182;7.890;2023-02-28T01:47:36;6.20;99.90
21648;DHT22;10985;54.182;7.890;2023-02-28T01:50:07;6.20;99.90
21648;DHT22;10985;54.182;7.890;2023-02-28T01:52:34;6.20;99.90
21648;DHT22;10985;54.182;7.890;2023-02-28T01:55:02;6.20;99.90
21648;DHT22;10985;54.182;7.890;2023-02-28T01:57:33;6.20;99.90
21648;DHT22;10985;54.182;7.890;2023-02-28T02:00:25;6.20;99.90
21648;DHT22;10985;54.182;7.890;2023-02-28T02:02:55;6.20;99.90
21648;DHT22;10985;54.182;7.890;2023-02-28T02:05:25;6.20;99.90
21648;DHT22;10985;54.182;7.890;2023-02-28T02:07:55;6.20;99.90
21648;DHT22;10985;54.182;7.890;2023-02-28T02:10:49;6.20;99.90
21648;DHT22;10985;54.182;7.890;2023-02-28T02:19:00;6.20;99.90
21648;DHT22;10985;54.182;7.890;2023-02-28T02:25:09;6.20;99.90
21648;DHT22;10985;54.182;7.890;2023-02-28T02:33:28;6.20;99.90
21648;DHT22;10985;54.182;7.890;2023-02-28T02:36:15;6.20;99.90
21648;DHT22;10985;54.182;7.890;2023-02-28T02:39:02;6.20;99.90
21648;DHT22;10985;54.182;7.890;2023-02-28T02:41:46;6.20;99.90
21648;DHT22;10985;54.182;7.890;2023-02-28T02:44:43;6.20;99.90
21648;DHT22;10985;54.182;7.890;2023-02-28T02:47:14;6.10;99.90
21648;DHT22;10985;54.182;7.890;2023-02-28T02:49:45;6.10;99.90
21648;DHT22;10985;54.182;7.890;2023-02-28T02:52:15;6.20;99.90
21648;DHT22;10985;54.182;7.890;2023-02-28T02:54:45;6.10;99.90
21648;DHT22;10985;54.182;7.890;2023-02-28T02:57:29;6.10;99.90
21648;DHT22;10985;54.182;7.890;2023-02-28T02:59:56;6.10;99.90
21648;DHT22;10985;54.182;7.890;2023-02-28T03:02:22;6.10;99.90
21648;DHT22;10985;54.182;7.890;2023-02-28T03:04:52;6.10;99.90
21648;DHT22;10985;54.182;7.890;2023-02-28T03:07:19;6.10;99.90
21648;DHT22;10985;54.182;7.890;2023-02-28T03:09:55;6.10;99.90
21648;DHT22;10985;54.182;7.890;2023-02-28T03:12:25;6.10;99.90
21648;DHT22;10985;54.182;7.890;2023-02-28T03:15:08;6.10;99.90
21648;DHT22;10985;54.182;7.890;2023-02-28T03:18:04;6.00;99.90
21648;DHT22;10985;54.182;7.890;2023-02-28T03:21:28;6.10;99.90
21648;DHT22;10985;54.182;7.890;2023-02-28T03:23:41;6.00;99.90
21648;DHT22;10985;54.182;7.890;2023-02-28T03:26:24;6.00;99.90
21648;DHT22;10985;54.182;7.890;2023-02-28T03:31:44;6.00;99.90
21648;DHT22;10985;54.182;7.890;2023-02-28T03:34:22;6.00;99.90
21648;DHT22;10985;54.182;7.890;2023-02-28T03:36:52;6.00;99.90
21648;DHT22;10985;54.182;7.890;2023-02-28T03:39:24;6.00;99.90
21648;DHT22;10985;54.182;7.890;2023-02-28T03:42:00;6.00;99.90
21648;DHT22;10985;54.182;7.890;2023-02-28T03:44:32;5.90;99.90
21648;DHT22;10985;54.182;7.890;2023-02-28T03:47:09;5.90;99.90
21648;DHT22;10985;54.182;7.890;2023-02-28T03:49:40;6.00;99.90
21648;DHT22;10985;54.182;7.890;2023-02-28T03:52:09;6.00;99.90
21648;DHT22;10985;54.182;7.890;2023-02-28T03:54:41;5.90;99.90
21648;DHT22;10985;54.182;7.890;2023-02-28T03:57:13;5.90;99.90
21648;DHT22;10985;54.182;7.890;2023-02-28T03:59:44;5.90;99.90
21648;DHT22;10985;54.182;7.890;2023-02-28T04:02:11;5.90;99.90
21648;DHT22;10985;54.182;7.890;2023-02-28T04:04:37;5.90;99.90
21648;DHT22;10985;54.182;7.890;2023-02-28T04:07:08;5.90;99.90
21648;DHT22;10985;54.182;7.890;2023-02-28T04:09:34;5.90;99.90
21648;DHT22;10985;54.182;7.890;2023-02-28T04:12:00;5.90;99.90
21648;DHT22;10985;54.182;7.890;2023-02-28T04:14:25;5.80;99.90
21648;DHT22;10985;54.182;7.890;2023-02-28T04:16:51;5.90;99.90
21648;DHT22;10985;54.182;7.890;2023-02-28T04:19:18;5.90;99.90
21648;DHT22;10985;54.182;7.890;2023-02-28T04:21:48;5.80;99.90
21648;DHT22;10985;54.182;7.890;2023-02-28T04:24:17;5.80;99.90
21648;DHT22;10985;54.182;7.890;2023-02-28T04:26:48;5.80;99.90
21648;DHT22;10985;54.182;7.890;2023-02-28T04:29:19;5.90;99.90
21648;DHT22;10985;54.182;7.890;2023-02-28T04:31:45;5.90;99.90
21648;DHT22;10985;54.182;7.890;2023-02-28T04:34:10;5.90;99.90
21648;DHT22;10985;54.182;7.890;2023-02-28T04:36:36;5.80;99.90
21648;DHT22;10985;54.182;7.890;2023-02-28T04:39:01;5.90;99.90
21648;DHT22;10985;54.182;7.890;2023-02-28T04:41:29;5.80;99.90
21648;DHT22;10985;54.182;7.890;2023-02-28T04:43:55;5.80;99.90
21648;DHT22;10985;54.182;7.890;2023-02-28T04:46:21;5.80;99.90
21648;DHT22;10985;54.182;7.890;2023-02-28T04:48:47;5.80;99.90
21648;DHT22;10985;54.182;7.890;2023-02-28T04:51:15;5.80;99.90
21648;DHT22;10985;54.182;7.890;2023-02-28T04:53:42;5.80;99.90
21648;DHT22;10985;54.182;7.890;2023-02-28T04:56:10;5.70;99.90
21648;DHT22;10985;54.182;7.890;2023-02-28T04:58:36;5.70;99.90
21648;DHT22;10985;54.182;7.890;2023-02-28T05:01:26;5.70;99.90
21648;DHT22;10985;54.182;7.890;2023-02-28T05:03:53;5.60;99.90
21648;DHT22;10985;54.182;7.890;2023-02-28T05:06:20;5.60;99.90
21648;DHT22;10985;54.182;7.890;2023-02-28T05:08:46;5.60;99.90
21648;DHT22;10985;54.182;7.890;2023-02-28T05:11:16;5.50;99.90
21648;DHT22;10985;54.182;7.890;2023-02-28T05:13:42;5.50;99.90
21648;DHT22;10985;54.182;7.890;2023-02-28T05:16:08;5.50;99.90
21648;DHT22;10985;54.182;7.890;2023-02-28T05:18:34;5.40;99.90
21648;DHT22;10985;54.182;7.890;2023-02-28T05:21:00;5.40;99.90
21648;DHT22;10985;54.182;7.890;2023-02-28T05:23:27;5.40;99.90
21648;DHT22;10985;54.182;7.890;2023-02-28T05:25:53;5.30;99.90
21648;DHT22;10985;54.182;7.890;2023-02-28T05:28:19;5.30;99.90
21648;DHT22;10985;54.182;7.890;2023-02-28T05:30:45;5.30;99.90
21648;DHT22;10985;54.182;7.890;2023-02-28T05:33:11;5.30;99.90
21648;DHT22;10985;54.182;7.890;2023-02-28T05:35:39;5.30;99.90
21648;DHT22;10985;54.182;7.890;2023-02-28T05:38:04;5.30;99.90
21648;DHT22;10985;54.182;7.890;2023-02-28T05:40:30;5.30;99.90
21648;DHT22;10985;54.182;7.890;2023-02-28T05:42:55;5.20;99.90
21648;DHT22;10985;54.182;7.890;2023-02-28T05:45:21;5.20;99.90
21648;DHT22;10985;54.182;7.890;2023-02-28T05:47:46;5.20;99.90
21648;DHT22;10985;54.182;7.890;2023-02-28T05:50:12;5.20;99.90
21648;DHT22;10985;54.182;7.890;2023-02-28T05:52:37;5.20;99.90
21648;DHT22;10985;54.182;7.890;2023-02-28T05:55:03;5.20;99.90
21648;DHT22;10985;54.182;7.890;2023-02-28T05:57:29;5.20;99.90
21648;DHT22;10985;54.182;7.890;2023-02-28T05:59:54;5.20;99.90
21648;DHT22;10985;54.182;7.890;2023-02-28T06:02:20;5.20;99.90
21648;DHT22;10985;54.182;7.890;2023-02-28T06:04:45;5.20;99.90
21648;DHT22;10985;54.182;7.890;2023-02-28T06:07:11;5.20;99.90
21648;DHT22;10985;54.182;7.890;2023-02-28T06:09:37;5.20;99.90
21648;DHT22;10985;54.182;7.890;2023-02-28T06:12:04;5.30;99.90
21648;DHT22;10985;54.182;7.890;2023-02-28T06:14:32;5.30;99.90
21648;DHT22;10985;54.182;7.890;2023-02-28T06:16:58;5.30;99.90
21648;DHT22;10985;54.182;7.890;2023-02-28T06:19:24;5.30;99.90
21648;DHT22;10985;54.182;7.890;2023-02-28T06:21:53;5.30;99.90
21648;DHT22;10985;54.182;7.890;2023-02-28T06:24:20;5.30;99.90
21648;DHT22;10985;54.182;7.890;2023-02-28T06:26:46;5.30;99.90
21648;DHT22;10985;54.182;7.890;2023-02-28T06:29:12;5.30;99.90
21648;DHT22;10985;54.182;7.890;2023-02-28T06:31:41;5.30;99.90
21648;DHT22;10985;54.182;7.890;2023-02-28T06:34:07;5.40;99.90
21648;DHT22;10985;54.182;7.890;2023-02-28T06:36:32;5.30;99.90
21648;DHT22;10985;54.182;7.890;2023-02-28T06:38:58;5.30;99.90
21648;DHT22;10985;54.182;7.890;2023-02-28T06:41:26;5.40;99.90
21648;DHT22;10985;54.182;7.890;2023-02-28T06:43:52;5.40;99.90
21648;DHT22;10985;54.182;7.890;2023-02-28T06:46:18;5.40;99.90
21648;DHT22;10985;54.182;7.890;2023-02-28T06:48:44;5.40;99.90
21648;DHT22;10985;54.182;7.890;2023-02-28T06:51:15;5.40;99.90
21648;DHT22;10985;54.182;7.890;2023-02-28T06:53:41;5.50;99.90
21648;DHT22;10985;54.182;7.890;2023-02-28T06:56:09;5.50;99.90
21648;DHT22;10985;54.182;7.890;2023-02-28T06:58:35;5.50;99.90
21648;DHT22;10985;54.182;7.890;2023-02-28T07:01:02;5.50;99.90
21648;DHT22;10985;54.182;7.890;2023-02-28T07:03:27;5.50;99.90
21648;DHT22;10985;54.182;7.890;2023-02-28T07:05:53;5.60;99.90
21648;DHT22;10985;54.182;7.890;2023-02-28T07:08:22;5.60;99.90
21648;DHT22;10985;54.182;7.890;2023-02-28T07:10:47;5.60;99.90
21648;DHT22;10985;54.182;7.890;2023-02-28T07:13:16;5.70;99.90
21648;DHT22;10985;54.182;7.890;2023-02-28T07:15:41;5.70;99.90
21648;DHT22;10985;54.182;7.890;2023-02-28T07:18:07;5.70;99.90
21648;DHT22;10985;54.182;7.890;2023-02-28T07:20:32;5.80;99.90
21648;DHT22;10985;54.182;7.890;2023-02-28T07:22:58;5.80;99.90
21648;DHT22;10985;54.182;7.890;2023-02-28T07:25:25;5.80;99.90
21648;DHT22;10985;54.182;7.890;2023-02-28T07:27:51;5.80;99.90
21648;DHT22;10985;54.182;7.890;2023-02-28T07:30:17;5.90;99.90
21648;DHT22;10985;54.182;7.890;2023-02-28T07:32:43;5.90;99.90
21648;DHT22;10985;54.182;7.890;2023-02-28T07:35:09;5.90;99.90
21648;DHT22;10985;54.182;7.890;2023-02-28T07:37:34;6.00;99.90
21648;DHT22;10985;54.182;7.890;2023-02-28T07:40:08;6.00;99.90
21648;DHT22;10985;54.182;7.890;2023-02-28T07:42:34;6.00;99.90
21648;DHT22;10985;54.182;7.890;2023-02-28T07:45:01;6.10;99.90
21648;DHT22;10985;54.182;7.890;2023-02-28T07:47:26;6.10;99.90
21648;DHT22;10985;54.182;7.890;2023-02-28T07:49:53;6.20;99.90
21648;DHT22;10985;54.182;7.890;2023-02-28T07:52:19;6.20;99.90
21648;DHT22;10985;54.182;7.890;2023-02-28T07:54:44;6.20;99.90
21648;DHT22;10985;54.182;7.890;2023-02-28T07:57:10;6.20;99.90
21648;DHT22;10985;54.182;7.890;2023-02-28T07:59:35;6.20;99.90
21648;DHT22;10985;54.182;7.890;2023-02-28T08:02:01;6.30;99.90
21648;DHT22;10985;54.182;7.890;2023-02-28T08:04:27;6.30;99.90
21648;DHT22;10985;54.182;7.890;2023-02-28T08:06:52;6.40;99.90
21648;DHT22;10985;54.182;7.890;2023-02-28T08:09:18;6.40;99.90
21648;DHT22;10985;54.182;7.890;2023-02-28T08:11:44;6.50;99.90
21648;DHT22;10985;54.182;7.890;2023-02-28T08:14:09;6.50;99.90
21648;DHT22;10985;54.182;7.890;2023-02-28T08:16:35;6.60;99.90
21648;DHT22;10985;54.182;7.890;2023-02-28T08:19:01;6.60;99.90
21648;DHT22;10985;54.182;7.890;2023-02-28T08:21:26;6.60;99.90
21648;DHT22;10985;54.182;7.890;2023-02-28T08:23:52;6.60;99.90
21648;DHT22;10985;54.182;7.890;2023-02-28T08:26:18;6.60;99.90
21648;DHT22;10985;54.182;7.890;2023-02-28T08:28:44;6.60;99.90
21648;DHT22;10985;54.182;7.890;2023-02-28T08:31:12;6.60;99.90
21648;DHT22;10985;54.182;7.890;2023-02-28T08:33:39;6.60;99.90
21648;DHT22;10985;54.182;7.890;2023-02-28T08:36:05;6.60;99.90
21648;DHT22;10985;54.182;7.890;2023-02-28T08:38:31;6.60;99.90
21648;DHT22;10985;54.182;7.890;2023-02-28T08:40:58;6.60;99.90
21648;DHT22;10985;54.182;7.890;2023-02-28T08:43:24;6.60;99.90
21648;DHT22;10985;54.182;7.890;2023-02-28T08:45:57;6.60;99.90
21648;DHT22;10985;54.182;7.890;2023-02-28T08:48:23;6.60;99.90
21648;DHT22;10985;54.182;7.890;2023-02-28T08:53:22;6.70;99.90
21648;DHT22;10985;54.182;7.890;2023-02-28T08:55:47;6.70;99.90
21648;DHT22;10985;54.182;7.890;2023-02-28T08:58:20;6.70;99.90
21648;DHT22;10985;54.182;7.890;2023-02-28T09:00:45;6.90;99.90
21648;DHT22;10985;54.182;7.890;2023-02-28T09:03:11;6.80;99.90
21648;DHT22;10985;54.182;7.890;2023-02-28T09:05:36;6.90;99.90
21648;DHT22;10985;54.182;7.890;2023-02-28T09:08:02;6.90;99.90
21648;DHT22;10985;54.182;7.890;2023-02-28T09:10:27;6.90;99.90
21648;DHT22;10985;54.182;7.890;2023-02-28T09:12:53;7.00;99.90
21648;DHT22;10985;54.182;7.890;2023-02-28T09:15:18;7.00;99.90
21648;DHT22;10985;54.182;7.890;2023-02-28T09:17:43;7.10;99.90
21648;DHT22;10985;54.182;7.890;2023-02-28T09:20:10;7.10;99.90
21648;DHT22;10985;54.182;7.890;2023-02-28T09:22:35;7.10;99.90
21648;DHT22;10985;54.182;7.890;2023-02-28T09:25:01;7.10;99.90
21648;DHT22;10985;54.182;7.890;2023-02-28T09:27:26;7.10;99.90
21648;DHT22;10985;54.182;7.890;2023-02-28T09:29:52;7.10;99.90
21648;DHT22;10985;54.182;7.890;2023-02-28T09:32:17;7.10;99.90
21648;DHT22;10985;54.182;7.890;2023-02-28T09:34:43;7.10;99.90
21648;DHT22;10985;54.182;7.890;2023-02-28T09:37:08;7.10;99.90
21648;DHT22;10985;54.182;7.890;2023-02-28T09:39:34;7.10;99.90
21648;DHT22;10985;54.182;7.890;2023-02-28T09:42:00;7.10;99.90
21648;DHT22;10985;54.182;7.890;2023-02-28T09:47:23;7.10;99.90
21648;DHT22;10985;54.182;7.890;2023-02-28T09:49:51;7.10;99.90
21648;DHT22;10985;54.182;7.890;2023-02-28T09:52:20;7.10;99.90
21648;DHT22;10985;54.182;7.890;2023-02-28T09:54:46;7.20;99.90
21648;DHT22;10985;54.182;7.890;2023-02-28T09:57:36;7.20;99.90
21648;DHT22;10985;54.182;7.890;2023-02-28T10:00:13;7.20;99.90
21648;DHT22;10985;54.182;7.890;2023-02-28T10:05:54;7.20;99.90
21648;DHT22;10985;54.182;7.890;2023-02-28T10:11:16;7.30;99.90
21648;DHT22;10985;54.182;7.890;2023-02-28T10:13:54;7.30;99.90
21648;DHT22;10985;54.182;7.890;2023-02-28T10:19:04;7.50;99.90
21648;DHT22;10985;54.182;7.890;2023-02-28T10:21:39;7.50;99.90
21648;DHT22;10985;54.182;7.890;2023-02-28T10:24:29;7.70;99.90
21648;DHT22;10985;54.182;7.890;2023-02-28T10:27:00;7.80;99.90
21648;DHT22;10985;54.182;7.890;2023-02-28T10:29:27;7.90;99.90
21648;DHT22;10985;54.182;7.890;2023-02-28T10:31:56;8.00;99.90
21648;DHT22;10985;54.182;7.890;2023-02-28T10:34:22;8.30;99.90
21648;DHT22;10985;54.182;7.890;2023-02-28T10:36:50;8.50;99.90
21648;DHT22;10985;54.182;7.890;2023-02-28T10:39:36;8.90;99.90
21648;DHT22;10985;54.182;7.890;2023-02-28T10:42:03;9.30;99.90
21648;DHT22;10985;54.182;7.890;2023-02-28T10:44:29;9.70;99.90
21648;DHT22;10985;54.182;7.890;2023-02-28T10:46:55;10.10;99.90
21648;DHT22;10985;54.182;7.890;2023-02-28T10:49:24;10.50;99.90
21648;DHT22;10985;54.182;7.890;2023-02-28T10:52:00;11.00;99.90
21648;DHT22;10985;54.182;7.890;2023-02-28T10:54:29;11.40;99.90
21648;DHT22;10985;54.182;7.890;2023-02-28T10:57:23;11.80;99.90
21648;DHT22;10985;54.182;7.890;2023-02-28T11:00:13;12.30;99.90
21648;DHT22;10985;54.182;7.890;2023-02-28T11:02:39;12.70;99.90
21648;DHT22;10985;54.182;7.890;2023-02-28T11:05:28;13.20;99.90
21648;DHT22;10985;54.182;7.890;2023-02-28T11:07:59;13.80;99.90
21648;DHT22;10985;54.182;7.890;2023-02-28T11:10:30;14.20;99.90
21648;DHT22;10985;54.182;7.890;2023-02-28T11:13:00;14.70;99.90
21648;DHT22;10985;54.182;7.890;2023-02-28T11:15:29;15.20;99.90
21648;DHT22;10985;54.182;7.890;2023-02-28T11:20:32;15.90;99.90
21648;DHT22;10985;54.182;7.890;2023-02-28T11:23:00;16.20;99.90
21648;DHT22;10985;54.182;7.890;2023-02-28T11:25:30;16.30;99.90
21648;DHT22;10985;54.182;7.890;2023-02-28T11:27:58;16.70;99.90
21648;DHT22;10985;54.182;7.890;2023-02-28T11:30:31;17.10;99.90
21648;DHT22;10985;54.182;7.890;2023-02-28T11:32:56;17.50;99.90
21648;DHT22;10985;54.182;7.890;2023-02-28T11:35:33;18.00;99.90
21648;DHT22;10985;54.182;7.890;2023-02-28T11:38:01;18.40;99.90
21648;DHT22;10985;54.182;7.890;2023-02-28T11:51:48;19.30;99.90
21648;DHT22;10985;54.182;7.890;2023-02-28T11:54:35;19.10;99.90
21648;DHT22;10985;54.182;7.890;2023-02-28T12:02:54;19.70;99.90
21648;DHT22;10985;54.182;7.890;2023-02-28T12:05:43;20.00;99.90
21648;DHT22;10985;54.182;7.890;2023-02-28T12:08:54;20.20;99.90
21648;DHT22;10985;54.182;7.890;2023-02-28T12:11:30;20.50;99.90
21648;DHT22;10985;54.182;7.890;2023-02-28T12:14:18;20.80;99.90
21648;DHT22;10985;54.182;7.890;2023-02-28T12:16:57;21.20;99.90
21648;DHT22;10985;54.182;7.890;2023-02-28T12:22:21;21.80;99.90
21648;DHT22;10985;54.182;7.890;2023-02-28T12:27:48;22.60;97.20
21648;DHT22;10985;54.182;7.890;2023-02-28T12:30:24;22.90;97.00
21648;DHT22;10985;54.182;7.890;2023-02-28T12:33:14;23.10;95.30
21648;DHT22;10985;54.182;7.890;2023-02-28T12:35:48;23.20;94.30
21648;DHT22;10985;54.182;7.890;2023-02-28T12:38:21;23.40;94.40
21648;DHT22;10985;54.182;7.890;2023-02-28T12:41:15;23.20;94.20
21648;DHT22;10985;54.182;7.890;2023-02-28T12:43:51;23.20;94.00
21648;DHT22;10985;54.182;7.890;2023-02-28T12:46:29;23.20;92.80
21648;DHT22;10985;54.182;7.890;2023-02-28T12:48:56;23.30;93.40
21648;DHT22;10985;54.182;7.890;2023-02-28T12:51:25;23.40;92.90
21648;DHT22;10985;54.182;7.890;2023-02-28T12:56:43;23.80;92.10
21648;DHT22;10985;54.182;7.890;2023-02-28T12:59:11;24.00;91.80
21648;DHT22;10985;54.182;7.890;2023-02-28T13:04:54;24.10;90.50
21648;DHT22;10985;54.182;7.890;2023-02-28T13:07:49;24.40;90.30
21648;DHT22;10985;54.182;7.890;2023-02-28T13:10:19;24.60;88.70
21648;DHT22;10985;54.182;7.890;2023-02-28T13:12:53;24.50;88.30
21648;DHT22;10985;54.182;7.890;2023-02-28T13:15:25;24.50;87.60
21648;DHT22;10985;54.182;7.890;2023-02-28T13:17:56;24.60;86.50
21648;DHT22;10985;54.182;7.890;2023-02-28T13:20:35;24.60;87.20
21648;DHT22;10985;54.182;7.890;2023-02-28T13:23:01;24.70;86.60
21648;DHT22;10985;54.182;7.890;2023-02-28T13:28:00;24.60;86.30
21648;DHT22;10985;54.182;7.890;2023-02-28T13:36:32;24.40;86.10
21648;DHT22;10985;54.182;7.890;2023-02-28T13:39:03;24.40;86.60
21648;DHT22;10985;54.182;7.890;2023-02-28T13:41:46;24.60;85.30
21648;DHT22;10985;54.182;7.890;2023-02-28T13:44:22;24.60;84.50
21648;DHT22;10985;54.182;7.890;2023-02-28T13:51:49;24.80;83.70
21648;DHT22;10985;54.182;7.890;2023-02-28T13:54:42;24.90;82.10
21648;DHT22;10985;54.182;7.890;2023-02-28T14:05:32;24.20;83.80
21648;DHT22;10985;54.182;7.890;2023-02-28T14:08:04;23.90;84.30
21648;DHT22;10985;54.182;7.890;2023-02-28T14:10:34;23.50;84.60
21648;DHT22;10985;54.182;7.890;2023-02-28T14:15:38;22.30;89.10
21648;DHT22;10985;54.182;7.890;2023-02-28T14:18:27;21.50;90.70
21648;DHT22;10985;54.182;7.890;2023-02-28T14:21:03;20.60;92.40
21648;DHT22;10985;54.182;7.890;2023-02-28T14:23:49;19.80;94.90
21648;DHT22;10985;54.182;7.890;2023-02-28T14:26:31;19.00;97.90
21648;DHT22;10985;54.182;7.890;2023-02-28T14:29:14;18.20;99.90
21648;DHT22;10985;54.182;7.890;2023-02-28T14:32:00;17.50;99.90
21648;DHT22;10985;54.182;7.890;2023-02-28T14:34:51;16.80;99.90
21648;DHT22;10985;54.182;7.890;2023-02-28T14:37:25;16.20;99.90
21648;DHT22;10985;54.182;7.890;2023-02-28T14:39:51;15.70;99.90
21648;DHT22;10985;54.182;7.890;2023-02-28T14:42:33;15.20;99.90
21648;DHT22;10985;54.182;7.890;2023-02-28T14:44:59;14.70;99.90
21648;DHT22;10985;54.182;7.890;2023-02-28T14:47:35;14.20;99.90
21648;DHT22;10985;54.182;7.890;2023-02-28T14:50:02;13.80;99.90
21648;DHT22;10985;54.182;7.890;2023-02-28T14:52:31;13.40;99.90
21648;DHT22;10985;54.182;7.890;2023-02-28T14:55:00;13.10;99.90
21648;DHT22;10985;54.182;7.890;2023-02-28T14:57:28;12.90;99.90
21648;DHT22;10985;54.182;7.890;2023-02-28T15:02:25;12.30;99.90
21648;DHT22;10985;54.182;7.890;2023-02-28T15:05:00;12.00;99.90
21648;DHT22;10985;54.182;7.890;2023-02-28T15:07:26;11.70;99.90
21648;DHT22;10985;54.182;7.890;2023-02-28T15:12:53;11.30;99.90
21648;DHT22;10985;54.182;7.890;2023-02-28T15:15:21;11.10;99.90
21648;DHT22;10985;54.182;7.890;2023-02-28T15:17:53;11.00;99.90
21648;DHT22;10985;54.182;7.890;2023-02-28T15:20:23;10.80;99.90
21648;DHT22;10985;54.182;7.890;2023-02-28T15:22:51;10.70;99.90
21648;DHT22;10985;54.182;7.890;2023-02-28T15:25:20;10.60;99.90
21648;DHT22;10985;54.182;7.890;2023-02-28T15:27:49;10.40;99.90
21648;DHT22;10985;54.182;7.890;2023-02-28T15:30:21;10.30;99.90
21648;DHT22;10985;54.182;7.890;2023-02-28T15:33:17;10.20;99.90
21648;DHT22;10985;54.182;7.890;2023-02-28T15:35:43;10.00;99.90
21648;DHT22;10985;54.182;7.890;2023-02-28T15:38:22;9.90;99.90
21648;DHT22;10985;54.182;7.890;2023-02-28T15:40:54;9.80;99.90
21648;DHT22;10985;54.182;7.890;2023-02-28T15:43:36;9.70;99.90
21648;DHT22;10985;54.182;7.890;2023-02-28T15:46:10;9.60;99.90
21648;DHT22;10985;54.182;7.890;2023-02-28T15:48:50;9.60;99.90
21648;DHT22;10985;54.182;7.890;2023-02-28T15:51:18;9.50;99.90
21648;DHT22;10985;54.182;7.890;2023-02-28T15:56:24;9.20;99.90
21648;DHT22;10985;54.182;7.890;2023-02-28T15:58:53;9.20;99.90
21648;DHT22;10985;54.182;7.890;2023-02-28T16:01:29;9.10;99.90
21648;DHT22;10985;54.182;7.890;2023-02-28T16:04:19;9.00;99.90
21648;DHT22;10985;54.182;7.890;2023-02-28T16:07:05;9.00;99.90
21648;DHT22;10985;54.182;7.890;2023-02-28T16:09:31;8.90;99.90
21648;DHT22;10985;54.182;7.890;2023-02-28T16:12:02;8.90;99.90
21648;DHT22;10985;54.182;7.890;2023-02-28T16:14:29;8.80;99.90
21648;DHT22;10985;54.182;7.890;2023-02-28T16:17:06;8.70;99.90
21648;DHT22;10985;54.182;7.890;2023-02-28T16:19:31;8.70;99.90
21648;DHT22;10985;54.182;7.890;2023-02-28T16:21:57;8.60;99.90
21648;DHT22;10985;54.182;7.890;2023-02-28T16:24:23;8.50;99.90
21648;DHT22;10985;54.182;7.890;2023-02-28T16:26:50;8.50;99.90
21648;DHT22;10985;54.182;7.890;2023-02-28T16:29:32;8.50;99.90
21648;DHT22;10985;54.182;7.890;2023-02-28T16:32:00;8.40;99.90
21648;DHT22;10985;54.182;7.890;2023-02-28T16:34:26;8.30;99.90
21648;DHT22;10985;54.182;7.890;2023-02-28T16:36:52;8.30;99.90
21648;DHT22;10985;54.182;7.890;2023-02-28T16:39:19;8.20;99.90
21648;DHT22;10985;54.182;7.890;2023-02-28T16:41:48;8.20;99.90
21648;DHT22;10985;54.182;7.890;2023-02-28T16:44:27;8.10;99.90
21648;DHT22;10985;54.182;7.890;2023-02-28T16:46:53;8.10;99.90
21648;DHT22;10985;54.182;7.890;2023-02-28T16:49:19;8.00;99.90
21648;DHT22;10985;54.182;7.890;2023-02-28T16:51:44;8.00;99.90
21648;DHT22;10985;54.182;7.890;2023-02-28T16:54:10;7.90;99.90
21648;DHT22;10985;54.182;7.890;2023-02-28T16:56:35;7.90;99.90
21648;DHT22;10985;54.182;7.890;2023-02-28T16:59:03;7.90;99.90
21648;DHT22;10985;54.182;7.890;2023-02-28T17:01:28;7.80;99.90
21648;DHT22;10985;54.182;7.890;2023-02-28T17:03:54;7.80;99.90
21648;DHT22;10985;54.182;7.890;2023-02-28T17:06:24;7.80;99.90
21648;DHT22;10985;54.182;7.890;2023-02-28T17:08:51;7.70;99.90
21648;DHT22;10985;54.182;7.890;2023-02-28T17:11:18;7.60;99.90
21648;DHT22;10985;54.182;7.890;2023-02-28T17:13:44;7.60;99.90
21648;DHT22;10985;54.182;7.890;2023-02-28T17:16:29;7.50;99.90
21648;DHT22;10985;54.182;7.890;2023-02-28T17:19:02;7.50;99.90
21648;DHT22;10985;54.182;7.890;2023-02-28T17:21:28;7.50;99.90
21648;DHT22;10985;54.182;7.890;2023-02-28T17:23:53;7.40;99.90
21648;DHT22;10985;54.182;7.890;2023-02-28T17:26:21;7.40;99.90
21648;DHT22;10985;54.182;7.890;2023-02-28T17:28:48;7.30;99.90
21648;DHT22;10985;54.182;7.890;2023-02-28T17:31:14;7.30;99.90
21648;DHT22;10985;54.182;7.890;2023-02-28T17:33:40;7.20;99.90
21648;DHT22;10985;54.182;7.890;2023-02-28T17:36:05;7.20;99.90
21648;DHT22;10985;54.182;7.890;2023-02-28T17:38:31;7.20;99.90